Time;durP1;ratioP1;P1;durP2;ratioP2;P2;SDS_P1;SDS_P2;PMS_P1;PMS_P2;Temp;Humidity;BMP_temperature;BMP_pressure;BME280_temperature;BME280_humidity;BME280_pressure;Samples;Min_cycle;Max_cycle;Signal;HPM_P1;HPM_P2
2022/08/29 00:01:59;;;;;;;6.43;2.83;;;;;;;14.63;72.67;102109.66;5053527;28;20280;-48
2022/08/29 00:04:25;;;;;;;6.20;2.67;;;;;;;14.60;73.08;102114.25;5053408;28;20520;-48
2022/08/29 00:06:50;;;;;;;5.85;2.70;;;;;;;14.54;73.12;102113.81;5043406;28;20044;-48
2022/08/29 00:09:15;;;;;;;4.30;2.57;;;;;;;14.55;72.87;102118.19;5053164;28;20052;-49
2022/08/29 00:11:40;;;;;;;5.57;2.67;;;;;;;14.53;73.27;102120.97;5052711;28;20299;-49
2022/08/29 00:14:06;;;;;;;8.57;3.00;;;;;;;14.54;73.61;102125.38;5053127;28;20025;-49
2022/08/29 00:16:31;;;;;;;6.85;3.03;;;;;;;14.52;74.01;102116.63;5053130;28;20467;-51
2022/08/29 00:18:57;;;;;;;8.90;3.50;;;;;;;14.51;73.21;102114.06;5053193;28;20477;-48
2022/08/29 00:21:22;;;;;;;8.73;3.88;;;;;;;14.43;74.37;102114.59;5052663;28;20028;-49
2022/08/29 00:23:48;;;;;;;8.05;4.00;;;;;;;14.44;73.89;102111.81;5053219;28;20104;-51
2022/08/29 00:26:13;;;;;;;8.38;4.60;;;;;;;14.42;73.59;102116.44;5052977;28;20029;-47
2022/08/29 00:28:38;;;;;;;8.82;4.60;;;;;;;14.42;73.98;102105.72;5044780;28;20029;-48
2022/08/29 00:31:04;;;;;;;8.70;4.18;;;;;;;14.42;74.15;102105.72;5053179;28;20036;-49
2022/08/29 00:33:29;;;;;;;8.70;4.82;;;;;;;14.42;73.96;102107.53;5052403;28;20021;-48
2022/08/29 00:35:54;;;;;;;9.77;5.13;;;;;;;14.38;74.40;102108.72;5052880;28;20052;-49
2022/08/29 00:38:20;;;;;;;8.93;5.07;;;;;;;14.31;74.60;102115.50;5052725;28;20102;-48
2022/08/29 00:40:50;;;;;;;8.23;4.78;;;;;;;14.31;74.27;102120.84;5052310;28;20386;-50
2022/08/29 00:43:17;;;;;;;11.88;5.43;;;;;;;14.32;74.42;102117.19;5039894;28;20078;-50
2022/08/29 00:46:04;;;;;;;10.70;5.22;;;;;;;14.29;74.51;102126.28;5046993;28;20037;-51
2022/08/29 00:48:31;;;;;;;9.70;4.95;;;;;;;14.31;74.55;102120.84;5052693;28;20454;-49
2022/08/29 00:51:04;;;;;;;8.35;4.28;;;;;;;14.23;74.19;102122.22;5094885;22;20020;-78
2022/08/29 00:53:35;;;;;;;7.57;4.80;;;;;;;14.21;74.60;102118.81;5051058;28;20131;-78
2022/08/29 00:56:02;;;;;;;10.07;4.95;;;;;;;14.16;75.18;102114.78;5049517;28;20040;-78
2022/08/29 00:58:34;;;;;;;12.35;5.03;;;;;;;14.13;75.42;102123.84;5054167;28;20040;-78
2022/08/29 01:01:00;;;;;;;7.95;4.70;;;;;;;14.12;75.39;102122.16;5054826;28;20025;-78
2022/08/29 01:03:29;;;;;;;8.57;5.05;;;;;;;14.09;75.39;102118.84;5045652;28;20033;-78
2022/08/29 01:05:58;;;;;;;;;;;;;;;14.21;72.35;102124.16;5054298;28;20087;-78
2022/08/29 01:08:23;;;;;;;10.98;5.22;;;;;;;14.06;74.57;102119.91;5042152;28;19919;-78
2022/08/29 01:13:38;;;;;;;11.23;5.60;;;;;;;14.02;75.70;102138.00;5054152;28;20036;-78
2022/08/29 01:16:05;;;;;;;9.32;5.30;;;;;;;14.01;75.35;102143.44;5041082;28;20479;-78
2022/08/29 01:18:34;;;;;;;10.05;5.60;;;;;;;13.92;75.58;102128.88;5046716;28;20037;-78
2022/08/29 01:21:17;;;;;;;10.68;6.10;;;;;;;13.99;74.40;102126.63;5053836;28;20390;-78
2022/08/29 01:24:13;;;;;;;8.07;5.43;;;;;;;13.96;74.49;102138.41;5054219;28;20499;-78
2022/08/29 01:26:39;;;;;;;12.18;5.00;;;;;;;13.93;74.99;102135.09;5054011;28;20054;-78
2022/08/29 01:29:04;;;;;;;10.32;5.60;;;;;;;13.86;75.48;102132.00;5053048;28;20112;-78
2022/08/29 01:31:45;;;;;;;8.90;5.20;;;;;;;13.83;75.48;102133.06;5050292;28;20037;-78
2022/08/29 01:34:12;;;;;;;10.13;5.57;;;;;;;13.80;75.69;102127.09;5054008;28;20115;-78
2022/08/29 01:36:46;;;;;;;9.38;5.38;;;;;;;13.73;75.29;102118.66;5052931;28;20035;-78
2022/08/29 01:39:12;;;;;;;10.82;5.45;;;;;;;13.69;75.23;102118.03;5044905;28;20022;-78
2022/08/29 01:41:37;;;;;;;6.70;4.93;;;;;;;13.62;75.93;102107.84;5036403;28;20026;-78
2022/08/29 01:44:10;;;;;;;9.52;5.22;;;;;;;13.61;75.49;102107.00;5043455;28;20036;-78
2022/08/29 01:46:37;;;;;;;8.60;5.80;;;;;;;13.60;75.79;102123.97;5040306;28;20099;-78
2022/08/29 01:49:06;;;;;;;10.43;5.95;;;;;;;13.59;76.32;102116.06;5043662;28;20028;-78
2022/08/29 01:51:32;;;;;;;10.60;5.78;;;;;;;13.56;76.49;102119.81;5042210;28;20192;-78
2022/08/29 01:53:57;;;;;;;11.98;6.53;;;;;;;13.57;76.27;102112.66;5023921;28;20488;-78
2022/08/29 01:56:27;;;;;;;11.30;5.97;;;;;;;13.52;76.63;102120.97;5033859;28;20033;-78
2022/08/29 01:58:55;;;;;;;15.63;6.40;;;;;;;13.49;76.32;102116.72;5025000;28;20115;-78
2022/08/29 02:01:23;;;;;;;14.57;6.13;;;;;;;13.44;76.63;102120.66;5034886;28;20029;-78
2022/08/29 02:03:49;;;;;;;14.18;6.25;;;;;;;13.42;76.66;102114.56;5025209;28;20025;-78
2022/08/29 02:06:15;;;;;;;10.75;6.40;;;;;;;13.36;77.38;102126.53;5007156;28;20029;-78
2022/08/29 02:08:42;;;;;;;15.02;6.32;;;;;;;13.35;76.86;102129.31;5025635;28;20065;-78
2022/08/29 02:11:09;;;;;;;12.05;5.88;;;;;;;13.33;77.15;102118.72;5036577;28;20025;-78
2022/08/29 02:13:44;;;;;;;11.75;6.50;;;;;;;13.29;77.15;102114.53;5021187;28;20033;-78
2022/08/29 02:16:11;;;;;;;14.55;7.07;;;;;;;13.23;77.29;102107.78;5038793;28;20021;-78
2022/08/29 02:18:36;;;;;;;14.55;6.72;;;;;;;13.29;76.68;102119.88;5038711;28;20046;-78
2022/08/29 02:21:03;;;;;;;9.85;6.25;;;;;;;13.25;77.11;102126.38;5037164;28;20132;-78
2022/08/29 02:23:28;;;;;;;17.70;7.47;;;;;;;13.25;77.28;102129.88;5024437;28;20495;-78
2022/08/29 02:25:53;;;;;;;15.15;6.85;;;;;;;13.26;77.17;102125.41;5042304;28;20029;-78
2022/08/29 02:28:19;;;;;;;14.68;6.80;;;;;;;13.21;77.74;102128.38;5037406;28;20025;-78
2022/08/29 02:30:48;;;;;;;12.35;6.10;;;;;;;13.23;77.07;102139.81;5032540;28;20029;-78
2022/08/29 02:33:14;;;;;;;8.25;5.40;;;;;;;13.22;77.26;102134.56;5034627;28;20066;-78
2022/08/29 02:35:40;;;;;;;14.85;6.63;;;;;;;13.13;77.58;102141.38;5033933;28;20021;-78
2022/08/29 02:38:05;;;;;;;14.52;6.82;;;;;;;13.16;77.70;102130.50;5030509;28;20037;-78
2022/08/29 02:40:31;;;;;;;11.27;6.57;;;;;;;13.14;77.76;102146.63;5021739;28;20021;-77
2022/08/29 02:42:57;;;;;;;14.02;6.15;;;;;;;13.14;77.46;102138.63;5036597;28;20020;-78
2022/08/29 02:45:23;;;;;;;10.55;5.57;;;;;;;13.08;77.54;102144.34;5035743;28;20372;-78
2022/08/29 02:47:49;;;;;;;11.27;5.72;;;;;;;13.02;77.91;102141.25;5036103;28;20480;-78
2022/08/29 02:50:15;;;;;;;13.93;5.95;;;;;;;12.98;78.20;102137.94;5020460;28;20433;-78
2022/08/29 02:52:41;;;;;;;13.18;6.13;;;;;;;12.96;78.13;102142.50;5028985;28;20045;-78
2022/08/29 02:55:14;;;;;;;12.05;5.57;;;;;;;12.94;78.47;102139.09;5035845;28;20017;-78
2022/08/29 02:57:39;;;;;;;11.65;6.30;;;;;;;12.96;78.48;102146.03;5041641;28;20025;-78
2022/08/29 03:00:08;;;;;;;11.02;6.03;;;;;;;12.92;78.06;102149.88;5034725;28;20468;-78
2022/08/29 03:02:33;;;;;;;12.55;6.03;;;;;;;12.93;77.97;102140.03;5036825;28;20104;-78
2022/08/29 03:04:59;;;;;;;10.73;5.57;;;;;;;12.86;78.13;102138.75;5035722;28;20495;-78
2022/08/29 03:07:24;;;;;;;8.77;5.55;;;;;;;12.89;78.33;102143.84;5036522;28;20099;-78
2022/08/29 03:09:50;;;;;;;10.88;5.93;;;;;;;12.85;78.17;102137.88;5036138;28;20064;-78
2022/08/29 03:12:15;;;;;;;10.30;5.93;;;;;;;12.90;78.48;102148.25;5025399;28;20053;-78
2022/08/29 03:14:40;;;;;;;10.18;6.07;;;;;;;12.87;77.76;102141.31;5034421;28;20056;-77
2022/08/29 03:17:06;;;;;;;9.10;5.30;;;;;;;12.89;78.05;102147.41;5035574;28;20033;-78
2022/08/29 03:19:31;;;;;;;10.82;5.93;;;;;;;12.85;77.83;102142.34;5026831;28;20025;-78
2022/08/29 03:21:56;;;;;;;8.77;5.85;;;;;;;12.87;77.88;102140.44;5044393;28;20143;-78
2022/08/29 03:24:21;;;;;;;10.27;5.43;;;;;;;12.78;78.32;102134.75;5035531;28;20032;-78
2022/08/29 03:26:47;;;;;;;8.20;5.30;;;;;;;12.73;78.45;102130.69;5038541;28;20031;-78
2022/08/29 03:29:12;;;;;;;12.57;6.05;;;;;;;12.69;78.51;102130.03;5036281;28;20025;-78
2022/08/29 03:31:37;;;;;;;10.93;5.90;;;;;;;12.68;79.07;102125.66;5036933;28;20068;-78
2022/08/29 03:34:03;;;;;;;13.65;5.25;;;;;;;12.66;77.30;102122.22;5030151;28;20302;-78
2022/08/29 03:36:28;;;;;;;13.07;5.35;;;;;;;12.64;78.98;102117.94;5025838;28;20026;-77
2022/08/29 03:38:54;;;;;;;11.30;5.53;;;;;;;12.63;78.58;102125.09;5034638;28;20025;-78
2022/08/29 03:41:27;;;;;;;11.02;5.38;;;;;;;12.65;78.66;102120.50;5044603;28;20029;-78
2022/08/29 03:43:57;;;;;;;8.50;5.10;;;;;;;12.61;78.82;102107.47;5032109;28;20388;-78
2022/08/29 03:46:23;;;;;;;13.63;5.60;;;;;;;12.57;78.96;102101.50;5023839;28;20390;-78
2022/08/29 03:48:48;;;;;;;8.02;5.03;;;;;;;12.59;78.81;102100.44;5017043;28;20022;-78
2022/08/29 03:51:15;;;;;;;10.32;5.75;;;;;;;12.55;79.44;102092.75;5034701;28;20040;-78
2022/08/29 03:53:41;;;;;;;9.23;5.30;;;;;;;12.60;79.16;102095.97;5029714;28;20425;-78
2022/08/29 03:56:08;;;;;;;12.00;6.00;;;;;;;12.56;79.70;102090.00;5016290;28;20034;-78
2022/08/29 03:58:33;;;;;;;9.73;5.80;;;;;;;12.57;79.94;102099.72;5027700;28;20061;-78
2022/08/29 04:00:59;;;;;;;11.55;6.55;;;;;;;12.55;79.90;102093.59;5018528;28;20504;-78
2022/08/29 04:03:25;;;;;;;11.45;5.85;;;;;;;12.53;79.55;102089.34;5032776;28;20087;-78
2022/08/29 04:05:51;;;;;;;9.43;5.70;;;;;;;12.54;79.87;102091.91;5005326;28;20473;-78
2022/08/29 04:08:16;;;;;;;12.50;6.47;;;;;;;12.54;79.55;102089.25;5033991;28;20036;-77
2022/08/29 04:10:42;;;;;;;14.85;6.70;;;;;;;12.53;79.29;102095.50;5045528;28;20033;-78
2022/08/29 04:13:07;;;;;;;12.27;6.63;;;;;;;12.50;80.13;102098.38;5036119;28;20388;-78
2022/08/29 04:15:33;;;;;;;11.18;6.80;;;;;;;12.51;79.99;102102.75;5035257;28;20481;-78
2022/08/29 04:18:01;;;;;;;10.32;6.13;;;;;;;12.42;80.23;102094.50;5031020;28;20116;-78
2022/08/29 04:20:33;;;;;;;9.02;5.82;;;;;;;12.41;80.43;102098.97;5027061;28;20022;-78
2022/08/29 04:22:58;;;;;;;11.85;6.82;;;;;;;12.40;80.56;102100.78;5035108;28;20033;-79
2022/08/29 04:25:26;;;;;;;10.57;6.40;;;;;;;12.37;80.51;102110.78;5022185;28;20032;-78
2022/08/29 04:27:53;;;;;;;10.70;6.50;;;;;;;12.35;80.57;102104.69;5021488;28;20025;-78
2022/08/29 04:30:22;;;;;;;11.52;6.82;;;;;;;12.31;80.76;102101.38;5033809;28;20041;-78
2022/08/29 04:32:49;;;;;;;12.30;6.13;;;;;;;12.39;80.88;102115.06;5034798;28;20030;-78
2022/08/29 04:35:15;;;;;;;13.65;7.10;;;;;;;12.39;80.89;102116.88;5020434;28;20080;-78
2022/08/29 04:37:41;;;;;;;13.30;7.07;;;;;;;12.39;80.81;102116.88;5022590;28;20025;-78
2022/08/29 04:40:09;;;;;;;12.70;6.97;;;;;;;12.36;80.90;102111.75;5046817;28;20033;-77
2022/08/29 04:42:36;;;;;;;9.73;6.13;;;;;;;12.34;81.12;102122.50;5036102;28;20026;-78
2022/08/29 04:45:02;;;;;;;10.15;6.50;;;;;;;12.34;80.87;102114.50;5035219;28;20088;-78
2022/08/29 04:47:27;;;;;;;12.52;6.43;;;;;;;12.33;80.62;102117.28;5026693;28;20022;-78
2022/08/29 04:49:54;;;;;;;9.77;6.30;;;;;;;12.31;80.48;102114.69;5028801;28;20021;-78
2022/08/29 04:52:20;;;;;;;11.30;6.20;;;;;;;12.30;80.24;102126.28;5034292;28;20287;-78
2022/08/29 04:54:45;;;;;;;11.02;6.57;;;;;;;12.26;80.20;102122.13;5033974;28;20550;-78
2022/08/29 04:57:11;;;;;;;10.45;6.38;;;;;;;12.23;80.50;102129.47;5033114;28;20068;-78
2022/08/29 04:59:36;;;;;;;15.15;6.68;;;;;;;12.22;81.05;102133.91;5033656;28;20030;-78
2022/08/29 05:02:02;;;;;;;14.80;6.07;;;;;;;12.19;80.68;102129.66;5034736;28;20025;-78
2022/08/29 05:04:27;;;;;;;13.18;6.72;;;;;;;12.22;80.40;102125.94;5034319;28;20032;-78
2022/08/29 05:06:52;;;;;;;14.27;6.47;;;;;;;12.19;80.64;102124.31;5033119;28;20107;-78
2022/08/29 05:09:18;;;;;;;13.05;6.38;;;;;;;12.19;81.11;102118.13;5021870;28;20033;-78
2022/08/29 05:11:43;;;;;;;13.35;6.30;;;;;;;12.19;81.11;102112.78;5027437;28;20105;-78
2022/08/29 05:14:09;;;;;;;12.57;6.75;;;;;;;12.19;81.35;102123.44;5028562;28;20036;-78
2022/08/29 05:16:36;;;;;;;12.35;5.30;;;;;;;12.16;81.49;102129.84;5022083;28;20017;-78
2022/08/29 05:19:03;;;;;;;11.93;5.78;;;;;;;12.14;81.76;102138.88;5021701;28;20018;-78
2022/08/29 05:21:32;;;;;;;13.70;6.35;;;;;;;12.15;81.34;102130.78;5034512;28;20037;-78
2022/08/29 05:23:58;;;;;;;8.10;5.43;;;;;;;12.18;81.43;102130.59;5014325;28;20109;-78
2022/08/29 05:26:29;;;;;;;11.27;5.68;;;;;;;12.21;81.71;102133.06;5015215;28;20620;-78
2022/08/29 05:28:54;;;;;;;12.18;5.65;;;;;;;12.23;81.72;102148.09;5030302;28;20026;-78
2022/08/29 05:31:21;;;;;;;10.85;5.72;;;;;;;12.27;81.89;102147.78;5036725;28;20159;-78
2022/08/29 05:33:47;;;;;;;8.10;5.20;;;;;;;12.27;82.21;102152.28;5038869;28;20025;-78
2022/08/29 05:36:12;;;;;;;9.85;5.70;;;;;;;12.29;82.17;102139.72;5020980;28;20488;-77
2022/08/29 05:38:37;;;;;;;9.10;5.40;;;;;;;12.37;82.54;102148.94;5021613;28;20029;-78
2022/08/29 05:41:03;;;;;;;7.65;5.10;;;;;;;12.42;82.31;102158.44;5031681;28;20368;-78
2022/08/29 05:43:28;;;;;;;10.80;5.43;;;;;;;12.42;82.51;102153.97;5034598;28;20033;-78
2022/08/29 05:46:05;;;;;;;8.88;4.95;;;;;;;12.45;82.58;102155.59;5029597;28;20443;-78
2022/08/29 05:48:31;;;;;;;15.98;5.82;;;;;;;12.51;82.05;102153.41;5018755;28;20030;-78
2022/08/29 05:50:57;;;;;;;8.82;4.80;;;;;;;12.58;82.30;102162.69;5018919;28;20026;-78
2022/08/29 05:53:22;;;;;;;11.18;5.43;;;;;;;12.60;82.61;102162.59;5036652;28;20104;-78
2022/08/29 05:55:48;;;;;;;10.25;5.53;;;;;;;12.64;82.89;102153.47;5037488;28;20060;-78
2022/08/29 05:58:13;;;;;;;11.15;5.32;;;;;;;12.70;82.84;102150.38;5033620;28;20030;-78
2022/08/29 06:00:43;;;;;;;11.82;5.70;;;;;;;12.66;82.20;102137.38;5034498;28;20037;-77
2022/08/29 06:03:09;;;;;;;8.18;5.57;;;;;;;12.80;82.23;102158.66;5034871;28;20469;-78
2022/08/29 06:05:35;;;;;;;12.07;5.72;;;;;;;12.85;82.68;102163.69;5029052;28;20384;-78
2022/08/29 06:08:01;;;;;;;10.40;5.32;;;;;;;12.89;82.34;102166.06;5037948;28;20075;-79
2022/08/29 06:10:27;;;;;;;10.75;5.32;;;;;;;12.98;82.78;102172.59;5027467;28;20497;-78
2022/08/29 06:12:52;;;;;;;9.82;5.57;;;;;;;13.00;82.26;102168.00;5023557;28;20029;-78
2022/08/29 06:15:19;;;;;;;10.60;6.25;;;;;;;13.06;82.27;102166.75;5037554;28;20037;-79
2022/08/29 06:17:44;;;;;;;11.75;6.20;;;;;;;13.08;82.67;102172.84;5027396;28;20120;-79
2022/08/29 06:20:10;;;;;;;8.07;5.20;;;;;;;13.16;82.16;102170.53;5033599;28;20105;-78
2022/08/29 06:22:37;;;;;;;12.23;5.68;;;;;;;13.18;81.91;102175.78;5035813;28;20048;-79
2022/08/29 06:25:04;;;;;;;11.93;5.38;;;;;;;13.24;81.88;102183.34;5034561;28;20025;-80
2022/08/29 06:27:29;;;;;;;11.27;6.45;;;;;;;13.28;81.44;102172.38;5037845;28;20018;-79
2022/08/29 06:29:54;;;;;;;8.32;5.47;;;;;;;13.36;81.66;102182.56;5038616;28;20034;-79
2022/08/29 06:32:20;;;;;;;11.95;5.38;;;;;;;13.40;81.18;102178.72;5034985;28;20633;-79
2022/08/29 06:34:45;;;;;;;10.50;5.40;;;;;;;13.45;82.01;102181.94;5039907;28;20037;-78
2022/08/29 06:37:10;;;;;;;17.98;5.97;;;;;;;13.51;81.72;102184.19;5035695;28;20025;-79
2022/08/29 06:39:35;;;;;;;10.18;5.68;;;;;;;13.54;81.05;102183.16;5020676;28;20069;-79
2022/08/29 06:42:01;;;;;;;13.65;5.60;;;;;;;13.59;80.97;102183.69;5031811;28;20048;-80
2022/08/29 06:44:29;;;;;;;10.07;5.78;;;;;;;13.67;80.71;102189.38;5035001;28;20056;-79
2022/08/29 06:46:54;;;;;;;13.02;5.72;;;;;;;13.73;80.60;102187.22;5024388;28;20030;-79
2022/08/29 06:49:20;;;;;;;12.50;5.77;;;;;;;13.82;80.86;102195.47;5026190;28;20049;-79
2022/08/29 06:51:53;;;;;;;10.55;5.90;;;;;;;13.94;81.13;102196.44;5034192;28;20280;-79
2022/08/29 06:54:21;;;;;;;10.95;5.78;;;;;;;14.00;80.23;102197.81;5035299;28;20099;-78
2022/08/29 06:56:47;;;;;;;10.40;5.75;;;;;;;14.10;79.04;102190.88;5032252;28;20031;-79
2022/08/29 06:59:13;;;;;;;10.77;5.97;;;;;;;14.21;79.00;102188.28;5031971;28;20045;-78
2022/08/29 07:01:41;;;;;;;12.07;5.70;;;;;;;14.33;79.31;102188.41;5035219;28;20026;-78
2022/08/29 07:04:06;;;;;;;10.73;6.72;;;;;;;14.39;77.00;102183.47;5036149;28;20041;-79
2022/08/29 07:06:32;;;;;;;12.80;6.15;;;;;;;14.52;77.31;102187.91;5034263;28;20025;-78
2022/08/29 07:08:57;;;;;;;13.25;6.60;;;;;;;14.69;76.73;102189.41;5023097;28;20046;-78
2022/08/29 07:11:25;;;;;;;10.38;5.90;;;;;;;14.91;75.83;102188.72;5026779;28;20037;-79
2022/08/29 07:13:51;;;;;;;11.63;6.60;;;;;;;15.30;75.20;102187.53;5028741;28;20122;-80
2022/08/29 07:16:18;;;;;;;12.73;6.15;;;;;;;15.60;74.00;102182.66;5022869;28;20088;-80
2022/08/29 07:18:44;;;;;;;12.48;6.18;;;;;;;15.96;70.23;102188.88;5016960;28;20551;-79
2022/08/29 07:21:13;;;;;;;11.40;5.60;;;;;;;16.27;70.05;102176.56;5022815;28;20036;-80
2022/08/29 07:23:39;;;;;;;9.77;5.80;;;;;;;16.53;66.86;102187.03;5031706;28;20022;-79
2022/08/29 07:26:09;;;;;;;14.90;5.88;;;;;;;16.83;65.47;102184.53;5033721;28;20120;-80
2022/08/29 07:28:35;;;;;;;12.20;6.50;;;;;;;17.24;64.17;102178.59;5035681;28;20468;-78
2022/08/29 07:31:01;;;;;;;11.07;5.70;;;;;;;17.59;63.12;102180.13;5023734;28;20108;-80
2022/08/29 07:33:26;;;;;;;10.35;4.90;;;;;;;17.82;60.12;102176.31;5035714;28;20017;-79
2022/08/29 07:35:53;;;;;;;9.30;4.50;;;;;;;18.05;59.96;102179.72;5035141;28;20030;-79
2022/08/29 07:38:18;;;;;;;7.10;4.53;;;;;;;18.16;58.19;102165.31;5030508;28;20040;-79
2022/08/29 07:40:44;;;;;;;9.02;4.38;;;;;;;18.25;57.57;102161.84;5043489;28;20029;-79
2022/08/29 07:43:09;;;;;;;7.30;4.43;;;;;;;18.23;56.82;102149.50;5042153;28;20021;-77
2022/08/29 07:45:39;;;;;;;7.85;4.63;;;;;;;18.26;56.59;102157.31;5043962;28;20694;-78
2022/08/29 07:48:05;;;;;;;9.73;4.95;;;;;;;18.38;57.02;102168.81;5038976;28;20025;-78
2022/08/29 07:50:30;;;;;;;9.23;4.55;;;;;;;18.43;56.40;102178.16;5026081;28;20040;-77
2022/08/29 07:52:56;;;;;;;8.43;4.72;;;;;;;18.48;56.69;102180.44;5035096;28;20388;-77
2022/08/29 07:55:21;;;;;;;6.90;4.13;;;;;;;18.63;56.34;102186.28;5040228;28;20059;-76
2022/08/29 07:57:50;;;;;;;10.13;4.00;;;;;;;18.73;55.32;102179.09;5028057;28;20041;-77
2022/08/29 08:00:16;;;;;;;13.00;4.70;;;;;;;18.81;54.50;102171.16;5025148;28;20034;-79
2022/08/29 08:02:41;;;;;;;9.52;4.15;;;;;;;18.96;55.12;102170.81;5034967;28;20024;-78
2022/08/29 08:05:07;;;;;;;7.15;3.33;;;;;;;19.09;52.95;102173.22;5034372;28;20037;-77
2022/08/29 08:07:33;;;;;;;11.63;3.88;;;;;;;19.19;52.87;102174.09;5030393;28;20373;-78
2022/08/29 08:09:59;;;;;;;7.22;3.90;;;;;;;19.17;51.26;102174.22;5029473;28;20105;-78
2022/08/29 08:12:25;;;;;;;8.48;3.17;;;;;;;19.28;53.56;102167.81;5034549;28;20114;-77
2022/08/29 08:14:51;;;;;;;6.63;3.10;;;;;;;19.31;53.11;102167.53;5030813;28;20029;-78
2022/08/29 08:17:16;;;;;;;10.35;3.47;;;;;;;19.39;52.27;102175.75;5032360;28;20100;-78
2022/08/29 08:19:43;;;;;;;9.48;3.70;;;;;;;19.46;53.50;102159.03;5014196;28;20125;-77
2022/08/29 08:22:08;;;;;;;8.68;3.72;;;;;;;19.63;51.79;102168.22;5024545;28;20029;-77
2022/08/29 08:24:33;;;;;;;7.65;3.50;;;;;;;19.79;51.56;102165.81;5021460;28;20018;-77
2022/08/29 08:26:59;;;;;;;7.57;3.70;;;;;;;19.85;51.61;102169.75;5034638;28;20030;-78
2022/08/29 08:29:25;;;;;;;6.80;3.50;;;;;;;19.90;51.21;102164.78;5021329;28;20283;-77
2022/08/29 08:31:51;;;;;;;9.40;4.30;;;;;;;19.98;51.66;102167.59;5037727;28;20292;-78
2022/08/29 08:34:18;;;;;;;6.72;3.33;;;;;;;20.01;49.44;102170.00;5051413;28;20530;-77
2022/08/29 08:36:44;;;;;;;9.15;3.80;;;;;;;20.14;50.76;102173.19;5033810;28;20035;-77
2022/08/29 08:39:12;;;;;;;6.43;3.50;;;;;;;20.18;49.93;102170.22;5033835;28;20044;-77
2022/08/29 08:41:56;;;;;;;8.25;3.92;;;;;;;20.23;51.14;102168.75;5044059;28;20129;-77
2022/08/29 08:44:21;;;;;;;10.75;3.72;;;;;;;20.18;50.10;102162.97;5025776;28;20562;-77
2022/08/29 08:46:53;;;;;;;7.93;3.47;;;;;;;20.23;50.72;102165.22;5025151;28;20026;-78
2022/08/29 08:49:29;;;;;;;7.45;3.70;;;;;;;20.08;51.77;102136.03;5028811;28;20083;-77
2022/08/29 08:52:03;;;;;;;7.95;3.70;;;;;;;20.34;51.81;102156.94;5036579;28;20059;-77
2022/08/29 08:54:35;;;;;;;9.93;4.15;;;;;;;20.31;50.23;102154.53;5020475;28;20026;-78
2022/08/29 08:57:09;;;;;;;7.63;3.75;;;;;;;20.33;51.56;102164.19;5021172;28;20041;-78
2022/08/29 08:59:42;;;;;;;9.00;4.10;;;;;;;20.36;50.65;102175.69;5035273;28;20048;-78
2022/08/29 09:02:28;;;;;;;8.77;3.67;;;;;;;20.46;50.57;102171.91;5026452;28;20030;-78
2022/08/29 09:05:00;;;;;;;6.35;3.42;;;;;;;20.28;48.53;102161.09;5030979;28;20026;-76
2022/08/29 09:07:46;;;;;;;8.80;3.63;;;;;;;20.38;50.33;102170.97;5033215;28;20564;-76
2022/08/29 09:10:36;;;;;;;8.85;3.92;;;;;;;20.45;50.44;102175.63;5042653;28;20087;-77
2022/08/29 09:13:35;;;;;;;11.80;3.92;;;;;;;20.53;49.36;102172.16;5041150;28;20111;-77
2022/08/29 09:16:08;;;;;;;7.70;3.58;;;;;;;20.49;46.93;102177.00;5028844;28;20069;-77
2022/08/29 09:18:39;;;;;;;7.78;3.83;;;;;;;20.50;47.07;102184.13;5036057;28;20032;-77
2022/08/29 09:21:15;;;;;;;7.47;4.20;;;;;;;20.42;47.71;102181.31;5023405;28;20034;-78
2022/08/29 09:23:43;;;;;;;12.25;4.35;;;;;;;20.39;47.10;102181.63;5031496;28;20030;-78
2022/08/29 09:26:09;;;;;;;8.63;3.45;;;;;;;20.44;47.18;102175.78;5025274;28;20370;-77
2022/08/29 09:28:34;;;;;;;7.53;4.50;;;;;;;20.40;46.96;102183.31;5015200;28;20029;-78
2022/08/29 09:31:13;;;;;;;9.13;4.10;;;;;;;20.50;49.56;102188.66;5032927;28;20502;-78
2022/08/29 09:33:42;;;;;;;9.57;4.38;;;;;;;20.52;49.54;102189.38;5028389;28;20088;-78
2022/08/29 09:36:12;;;;;;;9.43;4.60;;;;;;;20.42;50.13;102183.19;5028253;28;20126;-78
2022/08/29 09:38:37;;;;;;;9.20;4.68;;;;;;;20.47;49.88;102191.69;5033515;28;20318;-78
2022/08/29 09:41:09;;;;;;;9.00;3.97;;;;;;;20.44;49.56;102183.88;5033176;28;20116;-79
2022/08/29 09:43:37;;;;;;;9.63;4.57;;;;;;;20.51;50.05;102180.41;5033154;28;20376;-78
2022/08/29 09:46:24;;;;;;;10.93;4.43;;;;;;;20.55;49.99;102183.69;5036383;28;20054;-79
2022/08/29 09:49:12;;;;;;;6.55;4.00;;;;;;;20.54;49.93;102179.28;5025944;28;20056;-78
2022/08/29 09:51:41;;;;;;;10.02;3.90;;;;;;;20.38;47.30;102182.59;5032947;28;20075;-78
2022/08/29 09:54:12;;;;;;;6.47;4.03;;;;;;;20.55;47.01;102188.22;5029264;28;20037;-78
2022/08/29 09:56:49;;;;;;;7.93;3.80;;;;;;;20.65;46.24;102180.94;5046232;28;20032;-78
2022/08/29 09:59:25;;;;;;;9.48;4.10;;;;;;;20.82;46.87;102177.41;5032256;28;20360;-77
2022/08/29 10:02:18;;;;;;;9.20;3.83;;;;;;;20.88;47.11;102174.13;5032871;28;20492;-80
2022/08/29 10:04:47;;;;;;;10.73;4.40;;;;;;;20.69;47.99;102158.03;5007713;28;20026;-79
2022/08/29 10:07:44;;;;;;;11.73;4.25;;;;;;;20.84;49.75;102167.31;5027245;28;20022;-78
2022/08/29 10:10:14;;;;;;;9.05;4.10;;;;;;;20.86;48.14;102184.19;5023042;28;20323;-79
2022/08/29 10:12:50;;;;;;;6.35;3.85;;;;;;;21.06;47.25;102176.81;5022147;28;20053;-77
2022/08/29 10:16:00;;;;;;;9.15;4.30;;;;;;;21.26;47.77;102182.91;5033664;28;20419;-78
2022/08/29 10:18:44;;;;;;;11.80;4.53;;;;;;;21.40;47.45;102177.94;5013841;28;20042;-79
2022/08/29 10:21:09;;;;;;;6.80;3.70;;;;;;;21.29;46.34;102180.91;5026173;28;20052;-77
2022/08/29 10:23:43;;;;;;;10.40;4.10;;;;;;;21.23;45.75;102180.53;5031280;28;20480;-78
2022/08/29 10:26:29;;;;;;;11.48;4.25;;;;;;;21.20;47.07;102172.72;5040079;28;20025;-79
2022/08/29 10:29:20;;;;;;;8.18;4.20;;;;;;;21.56;46.24;102175.41;5025563;28;20033;-77
2022/08/29 10:32:00;;;;;;;9.00;3.95;;;;;;;21.95;45.78;102163.34;5030196;28;20385;-78
2022/08/29 10:34:38;;;;;;;8.07;4.43;;;;;;;22.37;45.13;102161.69;5036311;28;20025;-77
2022/08/29 10:37:19;;;;;;;13.73;3.88;;;;;;;22.60;43.36;102154.66;5020365;28;20034;-77
2022/08/29 10:39:57;;;;;;;9.70;3.97;;;;;;;22.89;42.55;102151.50;5018610;28;20088;-78
2022/08/29 10:42:25;;;;;;;7.28;4.00;;;;;;;23.14;41.15;102154.25;5032368;28;20472;-78
2022/08/29 10:45:14;;;;;;;6.85;4.35;;;;;;;23.36;41.42;102158.16;5036247;28;20091;-78
2022/08/29 10:47:52;;;;;;;8.35;4.32;;;;;;;23.62;40.68;102151.69;5034346;28;20026;-77
2022/08/29 10:50:40;;;;;;;8.70;3.78;;;;;;;24.00;41.38;102150.09;5035110;28;20029;-78
2022/08/29 10:53:14;;;;;;;7.32;3.72;;;;;;;24.35;40.58;102142.47;5035019;28;20373;-80
2022/08/29 10:55:54;;;;;;;8.00;4.05;;;;;;;24.48;40.12;102146.47;5031803;28;20025;-78
2022/08/29 10:58:37;;;;;;;7.47;4.18;;;;;;;24.80;40.62;102141.91;5025203;28;20021;-78
2022/08/29 11:01:05;;;;;;;8.40;4.22;;;;;;;24.99;38.30;102136.00;5025893;28;20034;-79
2022/08/29 11:03:41;;;;;;;11.70;4.77;;;;;;;25.02;38.82;102122.03;5034769;28;20030;-78
2022/08/29 11:06:20;;;;;;;7.63;4.43;;;;;;;24.91;38.83;102126.06;5033799;28;20108;-80
2022/08/29 11:08:49;;;;;;;;;;;;;;;25.19;40.84;102130.91;5026616;28;20037;-78
2022/08/29 11:11:18;;;;;;;7.43;4.10;;;;;;;25.05;37.38;102121.69;5024174;28;20007;-78
2022/08/29 11:13:48;;;;;;;7.75;4.03;;;;;;;25.29;38.98;102119.81;5031385;28;20025;-77
2022/08/29 11:16:26;;;;;;;6.43;3.78;;;;;;;25.56;38.78;102117.50;5025671;28;20029;-77
2022/08/29 11:19:01;;;;;;;9.38;4.22;;;;;;;25.66;37.06;102121.66;5023672;28;20401;-79
2022/08/29 11:21:35;;;;;;;10.75;4.05;;;;;;;25.46;35.71;102124.06;5033809;28;20036;-77
2022/08/29 11:24:02;;;;;;;8.65;4.80;;;;;;;25.65;35.28;102121.84;5031814;28;20041;-77
2022/08/29 11:26:42;;;;;;;9.60;3.90;;;;;;;25.68;36.91;102110.59;5029714;28;20122;-77
2022/08/29 11:29:34;;;;;;;6.90;3.47;;;;;;;25.85;35.49;102113.94;5027507;28;20030;-78
2022/08/29 11:32:18;;;;;;;8.30;3.80;;;;;;;25.97;36.55;102107.03;5029799;28;20041;-77
2022/08/29 11:35:01;;;;;;;8.07;3.83;;;;;;;25.85;35.52;102109.34;5035106;28;20484;-78